Darstellungsparameter: Aktuell verwendete Einstellungen:
Skalierung der Graphiken ... ?
xyx+y,   Skalierungsfaktor:      Skalierung: Modus: x, Faktor: 1
Darstellungszeitraum ... ?
Vom - - bis: - -   Zeitraum: 27.10.2010 - 27.10.2010
Min/Max/Avg-Anzeige ... ?
Zeige MMA aktuell
Zeige MMA Monat
Zeige MMA alles
Zeige --A aktuell
Zeige --A Monat
Zeige --A alles
Keine MMA-Anzeige
MMA:
Minimum Maximum Average (ber die Originaldaten)
MMA-Basis: 27.10.2010 - 27.10.2010
Quicknavigation für Darstellung... ?
Tage:      1T, 2T, 3T, 5T -1T -2T -3T -5T +1T +2T +3T +5T
Wochen: 1W, 2W, 3W -1W -2W -3W +1W +2W +3W
Monate: 1M, 3M, 6M -1M -3M -6M +1M +3M +6M
Jahre:    1J, 3J, 5J, 10J -1J -3J -5J -10J +1J +3J +5J +10J
Nutze für die Darstellung ... ?
Originaldaten oder Mittelwerte auf ...
Stundenbasis Tagesbasis Wochenbasis
Monatsbasis Jahresbasis      Datenbasis: Original-Daten
Darstellen als:
Statistik (Auto) Statistik J:M      Darstellung:
Zur Graphik,    zurück zur Übersicht aller Sensoren.
 
Tabellarische Datenbersicht: ?
 
Sensor: Nr:Datum:Temp:Abs-Feuchte:Windchill:Wind:
Aussen-T/F 1 27-10-2010 00:03:02 5.4 C 5.72 g/m*3 5.4 C 0 km/h
2 27-10-2010 00:15:02 5.4 C 5.72 g/m*3 5.4 C 0 km/h
3 27-10-2010 00:27:02 5.2 C 5.58 g/m*3 5.2 C 0 km/h
4 27-10-2010 00:39:02 5 C 5.5 g/m*3 5 C 0 km/h
5 27-10-2010 00:51:02 4.8 C 5.5 g/m*3 4.8 C 0 km/h
6 27-10-2010 01:03:02 5.1 C 5.34 g/m*3 5.1 C 0 km/h
7 27-10-2010 01:15:03 5.2 C 5.23 g/m*3 5.2 C 0 km/h
8 27-10-2010 01:27:03 5.3 C 5.2 g/m*3 5.3 C 0 km/h
9 27-10-2010 01:39:03 5.5 C 5.06 g/m*3 5.5 C 0 km/h
10 27-10-2010 01:51:03 5.7 C 4.84 g/m*3 5.7 C 0 km/h
11 27-10-2010 02:03:03 5.7 C 4.91 g/m*3 5.7 C 0 km/h
12 27-10-2010 02:15:03 5.5 C 5.06 g/m*3 5.5 C 0 km/h
13 27-10-2010 02:27:03 5.6 C 5.16 g/m*3 5.6 C 0 km/h
14 27-10-2010 02:39:03 5.5 C 5.2 g/m*3 5.5 C 0 km/h
15 27-10-2010 02:51:03 5.4 C 5.23 g/m*3 5.4 C 0 km/h
16 27-10-2010 03:03:03 5.6 C 5.23 g/m*3 5.6 C 0 km/h
17 27-10-2010 03:15:03 5.6 C 5.3 g/m*3 5.6 C 0 km/h
18 27-10-2010 03:27:03 5.4 C 5.23 g/m*3 5.4 C 0 km/h
19 27-10-2010 03:39:03 5.4 C 5.3 g/m*3 5.4 C 0 km/h
20 27-10-2010 03:51:03 5.4 C 5.23 g/m*3 5.4 C 0 km/h
21 27-10-2010 04:03:03 5.4 C 5.23 g/m*3 5.4 C 0 km/h
22 27-10-2010 04:15:03 5.4 C 5.23 g/m*3 5.4 C 0 km/h
23 27-10-2010 04:27:03 5.4 C 5.3 g/m*3 5.4 C 0 km/h
24 27-10-2010 04:39:03 5.4 C 5.23 g/m*3 5.4 C 0 km/h
25 27-10-2010 04:51:03 5.5 C 5.2 g/m*3 5.5 C 0 km/h
Sensor: Nr:Datum:Temp:Abs-Feuchte:Windchill:Wind:
Aussen-T/F 26 27-10-2010 05:03:03 5.6 C 5.16 g/m*3 5.6 C 0 km/h
27 27-10-2010 05:15:03 5.7 C 5.12 g/m*3 5.7 C 0 km/h
28 27-10-2010 05:27:03 5.7 C 5.19 g/m*3 5.7 C 0 km/h
29 27-10-2010 05:39:03 5.6 C 5.16 g/m*3 5.6 C 0 km/h
30 27-10-2010 05:51:04 5.6 C 5.16 g/m*3 5.6 C 0 km/h
31 27-10-2010 06:03:04 5.6 C 5.16 g/m*3 5.6 C 0 km/h
32 27-10-2010 06:15:04 5.7 C 5.19 g/m*3 5.7 C 0 km/h
33 27-10-2010 06:27:04 5.7 C 5.27 g/m*3 5.7 C 0 km/h
34 27-10-2010 06:39:04 5.7 C 5.27 g/m*3 5.7 C 0 km/h
35 27-10-2010 06:51:04 5.7 C 5.19 g/m*3 5.7 C 0 km/h
36 27-10-2010 07:03:04 5.7 C 5.19 g/m*3 5.7 C 0 km/h
37 27-10-2010 07:15:04 5.7 C 5.19 g/m*3 5.7 C 0 km/h
38 27-10-2010 07:27:04 5.7 C 5.19 g/m*3 5.7 C 0 km/h
39 27-10-2010 07:39:03 5.8 C 5.16 g/m*3 5.8 C 0 km/h
40 27-10-2010 07:51:02 5.9 C 5.05 g/m*3 5.9 C 0 km/h
41 27-10-2010 08:03:01 5.9 C 4.98 g/m*3 5.9 C 0 km/h
42 27-10-2010 08:15:02 5.9 C 5.05 g/m*3 5.9 C 0 km/h
43 27-10-2010 08:27:02 5.7 C 5.05 g/m*3 5.7 C 0 km/h
44 27-10-2010 08:39:02 5.5 C 5.13 g/m*3 5.5 C 0 km/h
45 27-10-2010 08:51:02 5.4 C 5.23 g/m*3 5.4 C 0 km/h
46 27-10-2010 09:03:03 5.5 C 5.48 g/m*3 5.5 C 0 km/h
47 27-10-2010 09:15:02 5.6 C 5.51 g/m*3 5.6 C 0 km/h
48 27-10-2010 09:27:02 5.8 C 5.66 g/m*3 5.8 C 0 km/h
49 27-10-2010 09:39:02 6 C 5.73 g/m*3 6 C 0 km/h
50 27-10-2010 09:51:01 6.3 C 5.85 g/m*3 6.3 C 0 km/h
Sensor: Nr:Datum:Temp:Abs-Feuchte:Windchill:Wind:
Aussen-T/F 51 27-10-2010 10:03:02 6.5 C 5.85 g/m*3 6.5 C 0 km/h
52 27-10-2010 10:15:01 6.8 C 5.89 g/m*3 6.8 C 0 km/h
53 27-10-2010 10:27:01 7 C 5.89 g/m*3 7 C 0 km/h
54 27-10-2010 10:39:01 7.3 C 5.77 g/m*3 7.3 C 0 km/h
55 27-10-2010 10:51:01 7.4 C 5.57 g/m*3 7.4 C 0 km/h
56 27-10-2010 11:03:01 7.6 C 5.56 g/m*3 7.6 C 0 km/h
57 27-10-2010 11:15:02 7.8 C 5.55 g/m*3 7.8 C 0 km/h
58 27-10-2010 11:27:02 8.2 C 5.53 g/m*3 8.2 C 0 km/h
59 27-10-2010 11:39:01 8.6 C 5.41 g/m*3 8.6 C 0 km/h
60 27-10-2010 11:51:02 8.9 C 5.17 g/m*3 8.9 C 0 km/h
61 27-10-2010 12:03:01 9.1 C 4.7 g/m*3 9.1 C 0 km/h
62 27-10-2010 12:15:02 9.4 C 4.43 g/m*3 9.4 C 0 km/h
63 27-10-2010 12:27:02 9.5 C 4.37 g/m*3 9.5 C 0 km/h
64 27-10-2010 12:39:01 9.8 C 4.36 g/m*3 9.8 C 0 km/h
65 27-10-2010 12:51:02 10.3 C 4.41 g/m*3 10.3 C 0 km/h
66 27-10-2010 13:03:02 10.7 C 4.22 g/m*3 10.7 C 0 km/h
67 27-10-2010 13:15:02 10.8 C 3.95 g/m*3 10.8 C 0 km/h
68 27-10-2010 13:27:02 11.1 C 3.73 g/m*3 11.1 C 0 km/h
69 27-10-2010 13:39:02 11 C 3.6 g/m*3 11 C 0 km/h
70 27-10-2010 13:51:02 11 C 3.7 g/m*3 11 C 0 km/h
71 27-10-2010 14:03:02 11 C 3.7 g/m*3 11 C 0 km/h
72 27-10-2010 14:15:01 11 C 3.8 g/m*3 11 C 0 km/h
73 27-10-2010 14:27:01 11 C 3.5 g/m*3 11 C 0 km/h
74 27-10-2010 14:39:02 11.1 C 3.63 g/m*3 11.1 C 0 km/h
75 27-10-2010 14:51:02 11.2 C 3.55 g/m*3 11.2 C 0 km/h
Sensor: Nr:Datum:Temp:Abs-Feuchte:Windchill:Wind:
Aussen-T/F 76 27-10-2010 15:03:02 11.3 C 3.57 g/m*3 11.3 C 0 km/h
77 27-10-2010 15:15:02 11.5 C 3.51 g/m*3 11.5 C 0 km/h
78 27-10-2010 15:27:02 11.7 C 3.66 g/m*3 11.7 C 0 km/h
79 27-10-2010 15:39:02 11.6 C 3.64 g/m*3 11.6 C 0 km/h
80 27-10-2010 15:51:02 11.7 C 3.35 g/m*3 11.7 C 0 km/h
81 27-10-2010 16:03:02 11.8 C 3.58 g/m*3 11.8 C 0 km/h
82 27-10-2010 16:15:03 11.9 C 3.39 g/m*3 11.9 C 0 km/h
83 27-10-2010 16:27:03 12.1 C 3.43 g/m*3 12.1 C 0 km/h
84 27-10-2010 16:39:02 12.1 C 3.32 g/m*3 12.1 C 0 km/h
85 27-10-2010 16:51:02 12 C 3.41 g/m*3 12 C 0 km/h
86 27-10-2010 17:03:02 11.9 C 3.6 g/m*3 11.9 C 0 km/h
87 27-10-2010 17:15:02 11.8 C 3.68 g/m*3 11.8 C 0 km/h
88 27-10-2010 17:27:02 11.6 C 3.33 g/m*3 11.6 C 0 km/h
89 27-10-2010 17:39:02 11.5 C 3.51 g/m*3 11.5 C 0 km/h
90 27-10-2010 17:51:02 11.2 C 3.65 g/m*3 11.2 C 0 km/h
91 27-10-2010 18:03:02 10.9 C 4.08 g/m*3 10.9 C 0 km/h
92 27-10-2010 18:15:02 10.6 C 4.2 g/m*3 10.6 C 0 km/h
93 27-10-2010 18:27:03 10.4 C 4.14 g/m*3 10.4 C 0 km/h
94 27-10-2010 18:39:01 10.1 C 4.63 g/m*3 10.1 C 0 km/h
95 27-10-2010 18:51:02 10.2 C 4.28 g/m*3 10.2 C 0 km/h
96 27-10-2010 19:03:01 10.2 C 4.38 g/m*3 10.2 C 0 km/h
97 27-10-2010 19:15:02 10.1 C 4.54 g/m*3 10.1 C 0 km/h
98 27-10-2010 19:27:02 10 C 4.32 g/m*3 10 C 0 km/h
99 27-10-2010 19:39:02 10 C 4.42 g/m*3 10 C 0 km/h
100 27-10-2010 19:51:02 9.9 C 4.39 g/m*3 9.9 C 0 km/h
Sensor: Nr:Datum:Temp:Abs-Feuchte:Windchill:Wind:
Aussen-T/F 101 27-10-2010 20:03:02 9.8 C 4.55 g/m*3 9.8 C 0 km/h
102 27-10-2010 20:15:02 9.7 C 4.33 g/m*3 9.7 C 0 km/h
103 27-10-2010 20:27:02 9.9 C 4.48 g/m*3 9.9 C 0 km/h
104 27-10-2010 20:39:02 9.8 C 4.36 g/m*3 9.8 C 0 km/h
105 27-10-2010 20:51:01 9.8 C 4.36 g/m*3 9.8 C 0 km/h
106 27-10-2010 21:03:02 9.7 C 4.61 g/m*3 9.7 C 0 km/h
107 27-10-2010 21:15:01 9.6 C 4.76 g/m*3 9.6 C 0 km/h
108 27-10-2010 21:27:01 9.6 C 4.49 g/m*3 9.6 C 0 km/h
109 27-10-2010 21:39:02 9.5 C 4.82 g/m*3 9.5 C 0 km/h
110 27-10-2010 21:51:02 9.4 C 4.88 g/m*3 9.4 C 0 km/h
111 27-10-2010 22:03:02 9.3 C 4.94 g/m*3 9.3 C 0 km/h
112 27-10-2010 22:15:01 9.2 C 4.91 g/m*3 9.2 C 0 km/h
113 27-10-2010 22:27:01 9.1 C 4.97 g/m*3 9.1 C 0 km/h
114 27-10-2010 22:39:02 9.2 C 4.91 g/m*3 9.2 C 0 km/h
115 27-10-2010 22:51:01 9.2 C 4.73 g/m*3 9.2 C 0 km/h
116 27-10-2010 23:03:02 9.2 C 4.55 g/m*3 9.2 C 0 km/h
117 27-10-2010 23:15:02 9.1 C 4.88 g/m*3 9.1 C 0 km/h
118 27-10-2010 23:27:02 9 C 4.85 g/m*3 9 C 0 km/h
119 27-10-2010 23:39:02 8.9 C 4.99 g/m*3 8.9 C 0 km/h
120 27-10-2010 23:51:02 8.9 C 4.99 g/m*3 8.9 C 0 km/h

Legende:
   Min
   Max


Maximal/Minimal-Werte vom 27.10.2010 - 27.10.2010

Sensor Min Max Avg
Temp
(Aussen-T/F)
4.8 °C
27-10-2010  00:51:02
12.1 °C
27-10-2010  16:27:03
8.15 °C
Abs-Feuchte
(Aussen-T/F)
3.32 g/m*3
27-10-2010  16:39:02
5.89 g/m*3
27-10-2010  10:15:01
4.7 g/m*3
Windchill
(Aussen-T/F)
4.8 C
27-10-2010  00:51:02
12.1 C
27-10-2010  16:27:03
8.08 C

Die Daten stammen von einer Davis Vantage Pro 2 Wetter-Station und werden unter Linux mit der Software wview2wettercgi und aufbereitet. Alle Angaben erfolgen ohne Gewähr für ihre Vollständigkeit oder Richtigkeit.
Kontakt: Rainer Krienke krienke@uni-koblenz.de . Meine Webseiten an der Uni Koblenz oder privat.
Version: $Revision: 0.78 $